LPLA

Details ICAO LPLA (TER)
Name LAJES
Region Portugal
Timezone Atlantic/Azores (UTC-1.0)
Plans Departing 262
Arriving 267
Stats Elevation 180 ft / 55 m (AMSL)
Location 38.764410° -27.093482°
Runways 1
Magnetic Variation 8.934° W
Sunrise 2017-12-17 09:02:09 UTC / 2017-12-17 08:02:09 Local
Sunset 2017-12-17 18:29:39 UTC / 2017-12-17 17:29:39 Local
Advertisement - Login to hide

Runways

ID Width Length Bearing (true) Bearing (mag) Surface Threshold Offset Overrun Length
15 197 ft / 60 m 10,869 ft / 3,313 m 140.81° 149.74° Asphalt 0 ft / 0 m 991 ft / 302 m
33 197 ft / 60 m 10,869 ft / 3,313 m 320.82° 329.75° Asphalt 0 ft / 0 m 1,040 ft / 317 m

Approach Navaids

Runway Type Ident Frequency Range Bearing (true) Bearing (mag) Slope Elevation
15 Localiser DK 109.90 MHz 18 nm / 33 km 140.82° 149.76° - 180 ft / 55 m (AMSL)
15 Glidescope DK 109.90 MHz 10 nm / 19 km 140.81° 149.75° 3.00° 159 ft / 48 m (AMSL)
33 Localiser OZ 111.50 MHz 18 nm / 33 km 320.81° 329.75° - 158 ft / 48 m (AMSL)
33 Glidescope OZ 111.50 MHz 10 nm / 19 km 320.81° 329.75° 3.20° 180 ft / 55 m (AMSL)

Map

Weather


0- 5 10 15 20 25 30 35+ Temperature / ° C

Clouds and Precipitation
Forecast for 2017-12-17 12:00 UTC. Updated 44 minutes ago

Ground ~20,000 ft ~40,000 ft Winds

METAR

LPLA 170800Z /////KT 9999 FEW018 SCT025 17/15 Q1029

TAF

TAF LPLA 170502Z 1706/1806 20010KT 9999 FEW020 SCT030= TAF LPPD 170500Z 1706/1806 VRB05KT 9999 FEW020 BKN035 TEMPO 1706/1803 SCT018 BECMG 1709/1712 16010KT PROB30 TEMPO 1803/1806 5000 DZRA SCT004 BKN008

Frequencies

Recorded 120.30 MHz ATIS
Tower 122.10 MHz TWR
Ground 121.90 MHz GND
Approach 135.00 MHz APP
Warning: Do not use this data for real-world aviation or navigation. No guarantee of current accuracy is given.